createdAt,value
2019-01-10T00:01:32.144Z,13.83
2019-01-10T00:04:01.046Z,13.38
2019-01-10T00:06:30.030Z,12.43
2019-01-10T00:08:59.010Z,11.43
2019-01-10T00:11:39.193Z,11.22
2019-01-10T00:14:08.183Z,13.80
2019-01-10T00:16:37.551Z,10.40
2019-01-10T00:19:06.445Z,14.50
2019-01-10T00:21:36.144Z,11.47
2019-01-10T00:24:05.099Z,12.40
2019-01-10T00:26:34.414Z,16.17
2019-01-10T00:29:03.329Z,13.40
2019-01-10T00:31:32.304Z,11.63
2019-01-10T00:34:01.232Z,8.90
2019-01-10T00:36:30.124Z,11.87
2019-01-10T00:38:59.021Z,12.33
2019-01-10T00:41:28.698Z,13.90
2019-01-10T00:43:57.569Z,14.13
2019-01-10T00:46:26.495Z,14.93
2019-01-10T00:48:55.437Z,10.90
2019-01-10T00:51:25.593Z,13.73
2019-01-10T00:57:16.959Z,17.20
2019-01-10T00:59:45.893Z,10.70
2019-01-10T01:02:15.154Z,18.50
2019-01-10T01:04:44.049Z,10.70
2019-01-10T01:07:13.096Z,13.03
2019-01-10T01:09:42.317Z,14.18
2019-01-10T01:12:12.302Z,11.75
2019-01-10T01:14:41.518Z,13.00
2019-01-10T01:17:10.717Z,13.47
2019-01-10T01:19:40.426Z,11.10
2019-01-10T01:28:52.529Z,12.55
2019-01-10T01:31:21.764Z,11.47
2019-01-10T01:33:51.074Z,10.03
2019-01-10T01:36:20.069Z,13.33
2019-01-10T01:38:48.952Z,13.90
2019-01-10T01:41:17.856Z,13.40
2019-01-10T01:43:46.790Z,11.10
2019-01-10T01:46:16.052Z,13.33
2019-01-10T01:48:44.962Z,12.13
2019-01-10T01:51:13.913Z,14.93
2019-01-10T01:53:42.806Z,19.00
2019-01-10T01:56:11.702Z,18.73
2019-01-10T01:58:40.619Z,15.20
2019-01-10T02:01:09.502Z,13.90
2019-01-10T02:03:38.401Z,12.77
2019-01-10T02:06:07.712Z,12.60
2019-01-10T02:08:39.940Z,10.97
2019-01-10T02:11:08.840Z,12.23
2019-01-10T02:13:37.775Z,18.00
2019-01-10T02:16:07.370Z,13.70
2019-01-10T02:18:36.623Z,15.13
2019-01-10T02:21:05.645Z,13.90
2019-01-10T02:23:34.523Z,14.73
2019-01-10T02:26:03.501Z,15.60
2019-01-10T02:28:32.835Z,17.53
2019-01-10T02:31:01.730Z,15.73
2019-01-10T02:33:31.292Z,14.90
2019-01-10T02:36:36.144Z,14.83
2019-01-10T02:39:06.989Z,15.80
2019-01-10T02:41:36.283Z,14.40
2019-01-10T02:44:05.189Z,15.80
2019-01-10T02:46:34.086Z,14.90
2019-01-10T02:49:03.293Z,13.50
2019-01-10T02:51:32.210Z,15.07
2019-01-10T02:54:01.568Z,17.47
2019-01-10T02:56:30.448Z,18.40
2019-01-10T02:58:59.372Z,20.37
2019-01-10T03:01:28.823Z,16.23
2019-01-10T03:03:57.698Z,14.80
2019-01-10T03:09:38.779Z,14.20
2019-01-10T03:18:36.433Z,18.37
2019-01-10T03:21:05.616Z,20.80
2019-01-10T03:23:34.537Z,16.87
2019-01-10T03:26:03.478Z,17.17
2019-01-10T03:28:32.367Z,16.13
2019-01-10T03:31:01.242Z,19.80
2019-01-10T03:33:30.165Z,17.67
2019-01-10T03:36:18.064Z,15.47
2019-01-10T03:38:46.986Z,17.57
2019-01-10T03:41:15.966Z,20.67
2019-01-10T03:43:47.544Z,17.83
2019-01-10T03:46:15.725Z,16.90
2019-01-10T03:48:45.062Z,15.77
2019-01-10T03:51:14.001Z,15.97
2019-01-10T03:53:42.918Z,17.30
2019-01-10T03:56:11.794Z,17.10
2019-01-10T03:58:40.745Z,19.07
2019-01-10T04:01:09.630Z,17.43
2019-01-10T04:03:38.543Z,16.33
2019-01-10T04:06:07.451Z,19.63
2019-01-10T04:08:36.339Z,18.47
2019-01-10T04:11:05.548Z,18.27
2019-01-10T04:13:34.436Z,17.10
2019-01-10T04:16:03.369Z,18.80
2019-01-10T04:18:32.260Z,20.50
2019-01-10T04:21:04.310Z,15.40
2019-01-10T04:23:33.201Z,20.90
2019-01-10T04:26:02.873Z,20.07
2019-01-10T04:28:31.916Z,20.40
2019-01-10T04:31:01.043Z,20.30
2019-01-10T04:33:30.415Z,15.10
2019-01-10T04:36:00.017Z,17.10
2019-01-10T04:38:29.276Z,17.03
2019-01-10T04:40:58.190Z,23.33
2019-01-10T04:43:30.303Z,19.83
2019-01-10T04:45:59.252Z,18.73
2019-01-10T04:48:28.134Z,18.87
2019-01-10T04:50:57.426Z,21.27
2019-01-10T04:53:26.768Z,19.73
2019-01-10T04:55:55.810Z,18.67
2019-01-10T04:58:24.739Z,21.00
2019-01-10T05:00:53.870Z,15.53
2019-01-10T05:03:22.798Z,20.37
2019-01-10T05:05:51.701Z,20.00
2019-01-10T05:08:20.585Z,22.07
2019-01-10T05:10:49.917Z,20.40
2019-01-10T05:13:18.817Z,20.53
2019-01-10T05:15:47.758Z,20.03
2019-01-10T05:18:16.656Z,21.03
2019-01-10T05:20:45.945Z,21.70
2019-01-10T05:23:15.277Z,20.83
2019-01-10T05:25:44.592Z,26.20
2019-01-10T05:28:13.531Z,21.03
2019-01-10T05:30:42.881Z,23.30
2019-01-10T05:33:18.595Z,21.40
2019-01-10T05:35:47.545Z,23.40
2019-01-10T05:38:16.500Z,18.70
2019-01-10T05:40:45.777Z,20.63
2019-01-10T05:43:14.790Z,21.83
2019-01-10T05:45:58.304Z,17.70
2019-01-10T05:48:30.775Z,18.87
2019-01-10T05:50:59.737Z,21.40
2019-01-10T05:53:28.681Z,19.43
2019-01-10T05:55:57.613Z,19.87
2019-01-10T05:58:26.988Z,21.73
2019-01-10T06:00:55.914Z,23.60
2019-01-10T06:03:25.509Z,20.10
2019-01-10T06:05:54.459Z,16.60
2019-01-10T06:08:23.432Z,17.50
2019-01-10T06:10:52.747Z,24.33
2019-01-10T06:13:29.801Z,18.97
2019-01-10T06:15:59.116Z,21.77
2019-01-10T06:18:28.079Z,19.93
2019-01-10T06:20:59.169Z,18.67
2019-01-10T06:23:28.122Z,21.40
2019-01-10T06:25:57.697Z,20.72
2019-01-10T06:28:26.626Z,23.93
2019-01-10T06:30:55.636Z,21.23
2019-01-10T06:33:24.561Z,20.80
2019-01-10T06:35:53.556Z,22.00
2019-01-10T06:38:22.963Z,21.87
2019-01-10T06:40:52.339Z,18.63
2019-01-10T06:43:21.653Z,22.23
2019-01-10T06:45:50.927Z,22.40
2019-01-10T06:48:19.949Z,20.45
2019-01-10T06:50:48.876Z,22.40
2019-01-10T06:53:17.837Z,19.70
2019-01-10T06:55:46.777Z,24.10
2019-01-10T06:58:15.748Z,19.30
2019-01-10T07:00:44.762Z,23.93
2019-01-10T07:03:14.189Z,21.30
2019-01-10T07:05:43.125Z,30.90
2019-01-10T07:08:12.028Z,21.27
2019-01-10T07:10:40.935Z,23.67
2019-01-10T07:13:09.785Z,27.77
2019-01-10T07:15:39.314Z,26.90
2019-01-10T07:18:08.852Z,23.67
2019-01-10T07:20:38.342Z,25.70
2019-01-10T07:23:07.602Z,21.90
2019-01-10T07:25:36.540Z,24.63
2019-01-10T07:28:23.795Z,22.37
2019-01-10T07:30:53.472Z,25.17
2019-01-10T07:33:22.383Z,27.10
2019-01-10T07:36:00.860Z,23.80
2019-01-10T07:38:29.762Z,33.13
2019-01-10T07:40:58.714Z,29.53
2019-01-10T07:43:27.992Z,25.20
2019-01-10T07:46:00.365Z,26.77
2019-01-10T07:48:29.635Z,27.57
2019-01-10T07:50:58.573Z,22.93
2019-01-10T07:53:27.517Z,24.63
2019-01-10T07:55:56.452Z,24.17
2019-01-10T07:58:25.374Z,26.43
2019-01-10T08:04:05.167Z,25.17
2019-01-10T08:06:34.473Z,29.37
2019-01-10T08:09:04.236Z,22.47
2019-01-10T08:11:33.097Z,24.70
2019-01-10T08:14:02.032Z,20.30
2019-01-10T08:16:30.906Z,21.73
2019-01-10T08:19:00.163Z,24.13
2019-01-10T08:21:29.096Z,20.17
2019-01-10T08:23:58.063Z,22.60
2019-01-10T08:26:26.931Z,21.90
2019-01-10T08:28:56.236Z,27.53
2019-01-10T08:31:25.583Z,19.80
2019-01-10T08:33:54.823Z,26.23
2019-01-10T08:36:32.110Z,21.90
2019-01-10T08:38:54.659Z,22.03
2019-01-10T08:41:23.599Z,22.63
2019-01-10T08:43:52.495Z,21.87
2019-01-10T08:46:21.938Z,22.17
2019-01-10T08:48:50.878Z,20.20
2019-01-10T08:51:20.159Z,22.60
2019-01-10T08:53:53.797Z,18.43
2019-01-10T08:56:19.952Z,22.03
2019-01-10T08:58:48.885Z,24.37
2019-01-10T09:01:18.567Z,23.27
2019-01-10T09:03:49.323Z,28.70
2019-01-10T09:06:18.250Z,20.80
2019-01-10T09:08:47.149Z,17.80
2019-01-10T09:11:16.048Z,22.50
2019-01-10T09:13:44.974Z,20.53
2019-01-10T09:16:13.963Z,19.33
2019-01-10T09:18:42.937Z,22.10
2019-01-10T09:21:11.906Z,18.97
2019-01-10T09:23:41.135Z,23.33
2019-01-10T09:26:10.043Z,19.27
2019-01-10T09:28:38.858Z,19.40
2019-01-10T09:31:08.298Z,19.47
2019-01-10T09:33:39.577Z,29.00
2019-01-10T09:36:07.742Z,19.77
2019-01-10T09:38:37.039Z,21.47
2019-01-10T09:41:05.973Z,24.10
2019-01-10T09:43:35.265Z,19.47
2019-01-10T09:46:04.286Z,25.43
2019-01-10T09:48:33.232Z,21.70
2019-01-10T09:51:03.171Z,18.03
2019-01-10T09:53:32.470Z,19.93
2019-01-10T09:56:01.770Z,19.13
2019-01-10T09:58:30.726Z,21.23
2019-01-10T10:00:59.589Z,18.90
2019-01-10T10:03:28.495Z,20.20
2019-01-10T10:05:57.816Z,20.90
2019-01-10T10:08:26.689Z,24.50
2019-01-10T10:10:55.630Z,16.83
2019-01-10T10:13:25.437Z,21.83
2019-01-10T10:15:54.698Z,21.20
2019-01-10T10:18:23.614Z,21.03
2019-01-10T10:21:04.226Z,19.50
2019-01-10T10:23:33.139Z,19.03
2019-01-10T10:26:02.464Z,18.07
2019-01-10T10:28:31.388Z,17.23
2019-01-10T10:31:00.390Z,19.93
2019-01-10T10:33:30.038Z,20.33
2019-01-10T10:35:58.923Z,16.60
2019-01-10T10:38:27.850Z,25.03
2019-01-10T10:40:56.780Z,17.47
2019-01-10T10:43:26.135Z,16.93
2019-01-10T10:46:01.495Z,19.27
2019-01-10T10:48:27.798Z,20.50
2019-01-10T10:50:57.117Z,17.10
2019-01-10T10:53:26.085Z,20.97
2019-01-10T10:55:55.389Z,21.93
2019-01-10T10:58:24.697Z,20.53
2019-01-10T11:00:53.683Z,18.67
2019-01-10T11:03:22.763Z,20.93
2019-01-10T11:05:51.645Z,16.97
2019-01-10T11:08:20.980Z,26.03
2019-01-10T11:10:50.321Z,19.23
2019-01-10T11:13:19.571Z,23.83
2019-01-10T11:15:48.759Z,24.20
2019-01-10T11:18:17.981Z,21.77
2019-01-10T11:20:46.837Z,13.40
2019-01-10T11:23:15.742Z,14.27
2019-01-10T11:25:44.652Z,16.80
2019-01-10T11:28:13.552Z,13.83
2019-01-10T11:30:42.819Z,19.87
2019-01-10T11:33:12.126Z,15.90
2019-01-10T11:35:41.038Z,22.53
2019-01-10T11:38:10.513Z,23.37
2019-01-10T11:40:40.239Z,19.70
2019-01-10T11:43:11.676Z,19.67
2019-01-10T11:45:40.586Z,24.30
2019-01-10T11:48:09.869Z,15.00
2019-01-10T11:50:39.167Z,17.80
2019-01-10T11:53:08.120Z,17.93
2019-01-10T11:55:37.358Z,20.53
2019-01-10T11:58:06.338Z,13.60
2019-01-10T12:00:35.314Z,12.20
2019-01-10T12:03:05.563Z,16.07
2019-01-10T12:05:35.513Z,16.33
2019-01-10T12:08:04.553Z,13.73
2019-01-10T12:10:33.929Z,15.83
2019-01-10T12:13:03.477Z,19.20
2019-01-10T12:15:46.548Z,20.43
2019-01-10T12:18:15.414Z,22.10
2019-01-10T12:20:44.700Z,17.50
2019-01-10T12:23:13.660Z,12.40
2019-01-10T12:25:42.932Z,14.90
2019-01-10T12:28:11.904Z,16.60
2019-01-10T12:30:41.788Z,14.57
2019-01-10T12:33:10.685Z,16.37
2019-01-10T12:35:39.569Z,12.90
2019-01-10T12:38:27.873Z,15.60
2019-01-10T12:40:56.725Z,11.77
2019-01-10T12:43:44.373Z,16.10
2019-01-10T12:46:13.694Z,13.57
2019-01-10T12:48:42.937Z,12.37
2019-01-10T12:51:11.940Z,14.67
2019-01-10T12:53:46.364Z,11.43
2019-01-10T12:56:18.424Z,10.90
2019-01-10T12:58:47.108Z,15.50
2019-01-10T13:01:16.029Z,15.03
2019-01-10T13:03:44.904Z,11.77
2019-01-10T13:06:13.856Z,10.90
2019-01-10T13:08:42.744Z,11.60
2019-01-10T13:11:11.634Z,11.50
2019-01-10T13:13:40.895Z,10.70
2019-01-10T13:16:09.804Z,13.73
2019-01-10T13:18:39.001Z,11.23
2019-01-10T13:21:26.410Z,11.83
2019-01-10T13:23:55.353Z,11.03
2019-01-10T13:26:24.641Z,17.10
2019-01-10T13:28:53.816Z,15.17
2019-01-10T13:31:29.258Z,12.23
2019-01-10T13:33:58.180Z,11.20
2019-01-10T13:36:27.099Z,12.03
2019-01-10T13:38:55.957Z,12.53
2019-01-10T13:41:25.208Z,12.23
2019-01-10T13:43:54.091Z,13.60
2019-01-10T13:46:23.590Z,13.87
2019-01-10T13:48:52.552Z,10.60
2019-01-10T13:51:22.442Z,15.03
2019-01-10T13:53:51.399Z,12.97
2019-01-10T13:56:20.270Z,11.63
2019-01-10T13:58:49.173Z,12.80
2019-01-10T14:01:18.115Z,12.87
2019-01-10T14:03:46.994Z,14.67
2019-01-10T14:06:24.117Z,15.03
2019-01-10T14:08:53.060Z,15.87
2019-01-10T14:11:22.068Z,12.03
2019-01-10T14:13:51.073Z,18.00
2019-01-10T14:16:19.986Z,13.37
2019-01-10T14:18:49.525Z,14.80
2019-01-10T14:21:18.529Z,13.07
2019-01-10T14:23:47.855Z,18.00
2019-01-10T14:26:16.824Z,10.77
2019-01-10T14:28:45.797Z,13.73
2019-01-10T14:31:14.732Z,13.13
2019-01-10T14:33:43.737Z,12.30
2019-01-10T14:36:12.597Z,13.50
2019-01-10T14:39:17.761Z,11.97
2019-01-10T14:41:47.158Z,14.07
2019-01-10T14:44:16.079Z,10.83
2019-01-10T14:46:45.372Z,16.60
2019-01-10T14:49:14.331Z,15.07
2019-01-10T14:51:43.245Z,13.70
2019-01-10T14:54:12.145Z,12.83
2019-01-10T14:56:41.092Z,13.53
2019-01-10T14:59:10.004Z,12.50
2019-01-10T15:01:38.952Z,12.60
2019-01-10T15:04:08.225Z,16.53
2019-01-10T15:06:37.148Z,13.50
2019-01-10T15:09:07.105Z,13.93
2019-01-10T15:11:36.390Z,13.00
2019-01-10T15:14:05.459Z,11.33
2019-01-10T15:16:34.826Z,12.10
2019-01-10T15:19:03.720Z,10.33
2019-01-10T15:21:32.607Z,8.83
2019-01-10T15:24:01.540Z,8.80
2019-01-10T15:26:30.451Z,11.40
2019-01-10T15:28:59.448Z,11.20
2019-01-10T15:31:47.265Z,6.97
2019-01-10T15:34:16.213Z,10.80
2019-01-10T15:36:45.195Z,8.83
2019-01-10T15:39:14.422Z,8.77
2019-01-10T15:41:43.370Z,13.27
2019-01-10T15:44:12.325Z,8.17
2019-01-10T15:46:41.241Z,11.03
2019-01-10T15:49:10.793Z,8.77
2019-01-10T15:51:39.727Z,11.57
2019-01-10T15:54:08.673Z,8.90
2019-01-10T15:56:38.415Z,9.90
2019-01-10T15:59:07.779Z,10.80
2019-01-10T16:01:36.687Z,8.70
2019-01-10T16:04:07.509Z,10.73
2019-01-10T16:06:36.385Z,9.43
2019-01-10T16:09:08.235Z,8.83
2019-01-10T16:11:37.152Z,9.23
2019-01-10T16:14:06.520Z,12.50
2019-01-10T16:16:35.533Z,9.57
2019-01-10T16:19:04.557Z,8.80
2019-01-10T16:21:33.865Z,8.20
2019-01-10T16:24:03.216Z,9.40
2019-01-10T16:26:32.259Z,10.50
2019-01-10T16:29:01.184Z,9.63
2019-01-10T16:31:30.365Z,9.27
2019-01-10T16:33:59.921Z,7.83
2019-01-10T16:36:29.325Z,8.00
2019-01-10T16:38:58.200Z,9.07
2019-01-10T16:41:29.465Z,7.70
2019-01-10T16:43:59.279Z,9.57
2019-01-10T16:46:28.195Z,10.40
2019-01-10T16:48:57.096Z,8.70
2019-01-10T16:51:26.347Z,9.07
2019-01-10T16:53:58.480Z,8.60
2019-01-10T16:56:27.388Z,8.07
2019-01-10T16:59:31.951Z,11.10
2019-01-10T17:02:01.196Z,10.90
2019-01-10T17:04:30.105Z,9.47
2019-01-10T17:06:59.011Z,9.80
2019-01-10T17:09:27.875Z,8.93
2019-01-10T17:11:56.791Z,10.90
2019-01-10T17:14:26.134Z,8.93
2019-01-10T17:16:55.090Z,8.03
2019-01-10T17:19:24.011Z,10.50
2019-01-10T17:21:53.276Z,7.77
2019-01-10T17:24:22.207Z,8.90
2019-01-10T17:26:51.291Z,8.80
2019-01-10T17:29:32.674Z,11.53
2019-01-10T17:32:01.612Z,19.63
2019-01-10T17:40:51.695Z,13.10
2019-01-10T17:43:41.757Z,13.97
2019-01-10T17:46:11.160Z,11.83
2019-01-10T17:48:40.046Z,13.63
2019-01-10T17:51:09.353Z,20.20
2019-01-10T17:53:38.650Z,13.33
2019-01-10T17:56:08.002Z,15.67
2019-01-10T17:58:36.968Z,14.60
2019-01-10T18:01:05.899Z,12.37
2019-01-10T18:03:40.147Z,13.17
2019-01-10T18:06:26.373Z,13.77
2019-01-10T18:08:55.317Z,15.90
2019-01-10T18:11:24.939Z,18.00
2019-01-10T18:13:54.351Z,20.63
2019-01-10T18:16:23.267Z,15.70
2019-01-10T18:18:52.192Z,17.80
2019-01-10T18:21:21.525Z,20.70
2019-01-10T18:23:50.829Z,17.40
2019-01-10T18:26:19.767Z,22.65
2019-01-10T18:28:50.217Z,19.03
2019-01-10T18:31:19.586Z,22.10
2019-01-10T18:33:48.499Z,16.63
2019-01-10T18:36:17.745Z,12.47
2019-01-10T18:38:46.671Z,16.27
2019-01-10T18:41:15.578Z,16.80
2019-01-10T18:43:44.493Z,14.50
2019-01-10T18:46:14.087Z,15.07
2019-01-10T18:48:42.991Z,11.97
2019-01-10T18:51:11.879Z,10.98
2019-01-10T18:53:41.188Z,12.50
2019-01-10T18:56:10.983Z,10.47
2019-01-10T18:58:39.860Z,12.00
2019-01-10T19:01:14.711Z,10.32
2019-01-10T19:03:43.988Z,8.77
2019-01-10T19:06:12.896Z,9.27
2019-01-10T19:08:42.166Z,9.13
2019-01-10T19:11:11.787Z,8.50
2019-01-10T19:13:40.652Z,9.90
2019-01-10T19:16:09.933Z,9.67
2019-01-10T19:18:38.827Z,14.07
2019-01-10T19:21:07.754Z,10.67
2019-01-10T19:23:36.683Z,13.53
2019-01-10T19:26:05.638Z,10.57
2019-01-10T19:28:34.611Z,13.20
2019-01-10T19:34:29.656Z,12.28
2019-01-10T19:36:58.523Z,9.20
2019-01-10T19:39:27.489Z,11.10
2019-01-10T19:41:56.347Z,10.40
2019-01-10T19:44:43.522Z,12.10
2019-01-10T19:47:39.625Z,11.03
2019-01-10T19:50:09.798Z,19.57
2019-01-10T19:52:45.393Z,19.93
2019-01-10T19:55:15.130Z,14.03
2019-01-10T19:57:46.164Z,18.40
2019-01-10T20:00:17.179Z,14.40
2019-01-10T20:02:46.544Z,11.83
2019-01-10T20:05:15.862Z,13.20
2019-01-10T20:07:44.809Z,12.43
2019-01-10T20:10:14.212Z,12.47
2019-01-10T20:12:43.150Z,11.10
2019-01-10T20:15:15.274Z,11.53
2019-01-10T20:17:46.801Z,9.70
2019-01-10T20:20:17.637Z,12.70
2019-01-10T20:22:46.955Z,11.30
2019-01-10T20:25:34.902Z,8.40
2019-01-10T20:28:04.797Z,10.00
2019-01-10T20:30:33.796Z,12.80
2019-01-10T20:33:26.641Z,12.50
2019-01-10T20:36:15.698Z,19.20
2019-01-10T20:38:59.797Z,19.00
2019-01-10T20:41:30.833Z,15.20
2019-01-10T20:44:00.082Z,17.57
2019-01-10T20:46:29.000Z,18.00
2019-01-10T20:49:10.153Z,21.00
2019-01-10T20:51:39.479Z,21.30
2019-01-10T20:54:09.054Z,19.80
2019-01-10T20:56:38.769Z,17.30
2019-01-10T20:59:07.680Z,14.97
2019-01-10T21:01:36.724Z,18.23
2019-01-10T21:04:05.672Z,18.00
2019-01-10T21:06:35.467Z,17.33
2019-01-10T21:09:12.858Z,14.07
2019-01-10T21:11:37.884Z,16.00
2019-01-10T21:14:07.227Z,14.53
2019-01-10T21:16:36.488Z,15.10
2019-01-10T21:19:05.372Z,14.40
2019-01-10T21:21:34.310Z,12.40
2019-01-10T21:24:03.192Z,14.67
2019-01-10T21:26:32.078Z,15.50
2019-01-10T21:29:02.337Z,13.13
2019-01-10T21:31:31.656Z,14.90
2019-01-10T21:34:01.018Z,14.23
2019-01-10T21:36:30.241Z,15.37
2019-01-10T21:38:59.143Z,13.73
2019-01-10T21:41:28.023Z,13.63
2019-01-10T21:43:56.942Z,10.50
2019-01-10T21:46:25.832Z,9.90
2019-01-10T21:48:55.222Z,10.47
2019-01-10T21:51:24.137Z,12.00
2019-01-10T21:53:53.075Z,10.87
2019-01-10T21:56:22.502Z,11.03
2019-01-10T21:58:51.836Z,13.63
2019-01-10T22:01:20.754Z,12.13
2019-01-10T22:03:49.616Z,13.80
2019-01-10T22:06:27.886Z,14.50
2019-01-10T22:08:56.795Z,10.83
2019-01-10T22:11:25.748Z,13.80
2019-01-10T22:13:54.637Z,12.17
2019-01-10T22:16:23.566Z,17.17
2019-01-10T22:18:52.466Z,11.50
2019-01-10T22:21:28.492Z,13.10
2019-01-10T22:27:07.474Z,19.50
2019-01-10T22:29:36.831Z,21.63
2019-01-10T22:32:05.765Z,19.00
2019-01-10T22:34:35.062Z,23.10
2019-01-10T22:37:04.013Z,15.80
2019-01-10T22:39:32.925Z,14.67
2019-01-10T22:42:01.853Z,17.50
2019-01-10T22:44:31.260Z,13.53
2019-01-10T22:47:01.239Z,13.20
2019-01-10T22:49:30.138Z,12.68
2019-01-10T22:51:59.090Z,13.40
2019-01-10T22:54:28.407Z,18.20
2019-01-10T22:56:57.312Z,13.60
2019-01-10T22:59:26.286Z,15.53
2019-01-10T23:01:57.891Z,11.20
2019-01-10T23:04:34.806Z,13.50
2019-01-10T23:07:03.817Z,11.70
2019-01-10T23:09:32.728Z,15.70
2019-01-10T23:12:02.700Z,13.57
2019-01-10T23:14:31.593Z,14.53
2019-01-10T23:17:01.316Z,12.05
2019-01-10T23:19:30.586Z,13.55
2019-01-10T23:22:09.148Z,15.08
2019-01-10T23:24:38.009Z,12.58
2019-01-10T23:27:07.292Z,14.85
2019-01-10T23:29:36.211Z,12.47
2019-01-10T23:35:37.002Z,14.00
2019-01-10T23:44:34.814Z,16.35
2019-01-10T23:50:22.059Z,12.55
2019-01-10T23:52:51.002Z,18.37
2019-01-10T23:55:19.885Z,13.80
2019-01-10T23:57:49.217Z,18.82
